Time;durP1;ratioP1;P1;durP2;ratioP2;P2;SDS_P1;SDS_P2;PMS_P1;PMS_P2;Temp;Humidity;BMP_temperature;BMP_pressure;BME280_temperature;BME280_humidity;BME280_pressure;Samples;Min_cycle;Max_cycle;Signal;HPM_P1;HPM_P2
2022/01/15 00:01:26;;;;;;;;;;;22.90;47.90;;;;;;5076574;28;19924;-69
2022/01/15 00:03:52;;;;;;;;;;;22.90;47.90;;;;;;5074066;28;19972;-70
2022/01/15 00:06:17;;;;;;;;;;;22.90;47.90;;;;;;5077319;28;19916;-73
2022/01/15 00:08:43;;;;;;;;;;;22.90;47.90;;;;;;5077968;28;19955;-70
2022/01/15 00:11:08;;;;;;;;;;;22.90;47.90;;;;;;5077281;28;20010;-71
2022/01/15 00:13:34;;;;;;;;;;;22.90;47.90;;;;;;5076157;28;19920;-71
2022/01/15 00:16:30;;;;;;;;;;;22.90;47.90;;;;;;5079828;28;19927;-70
2022/01/15 00:19:02;;;;;;;;;;;22.90;47.80;;;;;;5074768;28;19956;-71
2022/01/15 00:21:28;;;;;;;;;;;23.00;47.80;;;;;;5072629;28;19920;-70
2022/01/15 00:23:53;;;;;;;;;;;22.90;47.70;;;;;;5076837;28;19989;-69
2022/01/15 00:26:19;;;;;;;;;;;23.00;47.80;;;;;;5073568;28;20031;-68
2022/01/15 00:28:45;;;;;;;;;;;23.00;47.70;;;;;;5078702;28;19938;-69
2022/01/15 00:31:11;;;;;;;;;;;22.90;47.60;;;;;;5076357;28;19916;-68
2022/01/15 00:33:36;;;;;;;;;;;22.90;47.60;;;;;;5077119;28;19989;-69
2022/01/15 00:36:02;;;;;;;;;;;23.00;47.60;;;;;;5084132;28;19912;-71
2022/01/15 00:38:27;;;;;;;;;;;22.90;47.50;;;;;;5083360;28;19927;-75
2022/01/15 00:40:53;;;;;;;;;;;23.00;47.70;;;;;;5081425;28;20249;-70
2022/01/15 00:43:19;;;;;;;;;;;23.00;47.60;;;;;;5098246;28;20030;-71
2022/01/15 00:45:45;;;;;;;;;;;23.00;47.50;;;;;;5082384;28;19911;-67
2022/01/15 00:48:10;;;;;;;;;;;23.00;47.60;;;;;;5083684;28;19973;-69
2022/01/15 00:50:36;;;;;;;;;;;23.00;47.50;;;;;;5083384;28;20295;-69
2022/01/15 00:53:01;;;;;;;;;;;22.90;47.40;;;;;;5081754;28;20265;-68
2022/01/15 00:55:27;;;;;;;;;;;22.90;47.40;;;;;;5069871;28;19916;-69
2022/01/15 00:57:52;;;;;;;;;;;22.90;47.40;;;;;;5077959;28;20003;-71
2022/01/15 01:00:20;;;;;;;;;;;22.90;47.40;;;;;;5079009;28;20269;-69
2022/01/15 01:02:45;;;;;;;;;;;22.80;47.40;;;;;;5084151;28;19955;-71
2022/01/15 01:05:11;;;;;;;;;;;22.80;47.30;;;;;;5081668;28;19970;-71
2022/01/15 01:07:37;;;;;;;;;;;22.80;47.30;;;;;;5083196;28;20265;-68
2022/01/15 01:23:19;;;;;;;;;;;22.70;47.20;;;;;;5082277;28;20023;-68
2022/01/15 01:25:49;;;;;;;;;;;22.60;47.20;;;;;;5084995;28;20593;-69
2022/01/15 01:28:24;;;;;;;;;;;22.60;47.20;;;;;;5080971;28;19912;-70
2022/01/15 01:30:57;;;;;;;;;;;22.60;47.20;;;;;;5081017;28;19912;-69
2022/01/15 01:38:46;;;;;;;;;;;22.50;47.20;;;;;;5086973;28;20380;-68
2022/01/15 01:41:17;;;;;;;;;;;22.50;47.30;;;;;;5084791;28;20423;-72
2022/01/15 01:43:50;;;;;;;;;;;22.50;47.30;;;;;;5086241;28;19923;-71
2022/01/15 01:48:42;;;;;;;;;;;22.40;47.30;;;;;;5086497;28;19961;-72
2022/01/15 01:51:08;;;;;;;;;;;22.40;47.20;;;;;;5088398;28;19917;-67
2022/01/15 01:53:34;;;;;;;;;;;22.40;47.30;;;;;;5087477;28;20155;-68
2022/01/15 01:56:00;;;;;;;;;;;22.40;47.30;;;;;;5085824;28;19958;-68
2022/01/15 01:58:25;;;;;;;;;;;22.40;47.30;;;;;;5089567;28;19955;-69
2022/01/15 02:00:51;;;;;;;;;;;22.30;47.30;;;;;;5084120;28;19917;-70
2022/01/15 02:03:16;;;;;;;;;;;22.30;47.30;;;;;;5086593;28;20423;-72
2022/01/15 02:05:42;;;;;;;;;;;22.30;47.30;;;;;;5083353;28;20422;-67
2022/01/15 02:08:07;;;;;;;;;;;22.20;47.30;;;;;;5090523;28;19927;-69
2022/01/15 02:10:34;;;;;;;;;;;22.20;47.30;;;;;;5083484;28;20019;-67
2022/01/15 02:13:01;;;;;;;;;;;22.20;47.30;;;;;;5087668;28;19959;-70
2022/01/15 02:15:27;;;;;;;;;;;22.20;47.40;;;;;;5083787;28;20057;-68
2022/01/15 02:17:53;;;;;;;;;;;22.20;47.40;;;;;;5085327;28;19913;-69
2022/01/15 02:25:43;;;;;;;;;;;22.10;47.40;;;;;;5086305;28;20331;-68
2022/01/15 02:28:08;;;;;;;;;;;22.10;47.40;;;;;;5085361;28;19916;-72
2022/01/15 02:30:34;;;;;;;;;;;22.10;47.50;;;;;;5087025;28;20415;-72
2022/01/15 02:33:00;;;;;;;;;;;22.00;47.40;;;;;;5087476;28;19961;-69
2022/01/15 02:35:25;;;;;;;;;;;22.00;47.50;;;;;;5086725;28;19993;-67
2022/01/15 02:37:51;;;;;;;;;;;22.00;47.50;;;;;;5088776;28;19935;-69
2022/01/15 02:40:16;;;;;;;;;;;22.00;47.60;;;;;;5085621;28;19989;-72
2022/01/15 02:42:42;;;;;;;;;;;21.90;47.50;;;;;;5081590;28;20372;-69
2022/01/15 02:45:08;;;;;;;;;;;21.90;47.50;;;;;;5086848;28;19920;-72
2022/01/15 02:50:19;;;;;;;;;;;21.90;47.60;;;;;;5086411;28;19999;-69
2022/01/15 02:52:45;;;;;;;;;;;21.90;47.70;;;;;;5083504;28;20275;-69
2022/01/15 02:55:10;;;;;;;;;;;21.90;47.70;;;;;;5084770;28;19916;-69
2022/01/15 02:57:36;;;;;;;;;;;21.80;47.60;;;;;;5083005;28;19947;-72
2022/01/15 03:00:02;;;;;;;;;;;21.80;47.70;;;;;;5088829;28;19994;-69
2022/01/15 03:02:31;;;;;;;;;;;21.80;47.70;;;;;;5086241;28;19994;-69
2022/01/15 03:04:57;;;;;;;;;;;21.80;47.70;;;;;;5088505;28;19997;-69
2022/01/15 03:07:22;;;;;;;;;;;21.80;47.80;;;;;;5086904;28;19920;-72
2022/01/15 03:09:48;;;;;;;;;;;21.70;47.70;;;;;;5084130;28;19995;-68
2022/01/15 03:12:13;;;;;;;;;;;21.70;47.80;;;;;;5084981;28;20407;-70
2022/01/15 03:14:39;;;;;;;;;;;21.70;47.80;;;;;;5085792;28;19912;-69
2022/01/15 03:17:04;;;;;;;;;;;21.70;47.80;;;;;;5085752;28;19912;-71
2022/01/15 03:19:30;;;;;;;;;;;21.70;47.80;;;;;;5084069;28;19966;-69
2022/01/15 03:21:56;;;;;;;;;;;21.70;47.90;;;;;;5086109;28;20241;-69
2022/01/15 03:24:21;;;;;;;;;;;21.70;47.90;;;;;;5082006;28;20434;-69
2022/01/15 03:26:47;;;;;;;;;;;21.60;47.80;;;;;;5083178;28;20423;-69
2022/01/15 03:29:12;;;;;;;;;;;21.60;47.90;;;;;;5085823;28;20006;-69
2022/01/15 03:31:38;;;;;;;;;;;21.60;47.90;;;;;;5084197;28;20441;-69
2022/01/15 03:34:03;;;;;;;;;;;21.60;47.90;;;;;;5086562;28;19916;-68
2022/01/15 03:36:29;;;;;;;;;;;21.50;47.80;;;;;;5084352;28;19916;-69
2022/01/15 03:38:54;;;;;;;;;;;21.60;47.90;;;;;;5085281;28;19916;-69
2022/01/15 03:41:20;;;;;;;;;;;21.50;47.90;;;;;;5085654;28;19912;-70
2022/01/15 03:43:46;;;;;;;;;;;21.60;47.90;;;;;;5085062;28;19912;-67
2022/01/15 03:46:12;;;;;;;;;;;21.60;48.00;;;;;;5085148;28;19951;-71
2022/01/15 03:48:37;;;;;;;;;;;21.60;48.00;;;;;;5086394;28;20003;-69
2022/01/15 03:51:03;;;;;;;;;;;21.50;47.90;;;;;;5085328;28;19951;-69
2022/01/15 03:53:29;;;;;;;;;;;21.50;47.90;;;;;;5083925;28;19973;-71
2022/01/15 03:55:54;;;;;;;;;;;21.50;48.00;;;;;;5085146;28;20462;-69
2022/01/15 03:58:20;;;;;;;;;;;21.40;47.90;;;;;;5080777;28;19920;-69
2022/01/15 04:00:45;;;;;;;;;;;21.50;48.00;;;;;;5084602;28;19976;-68
2022/01/15 04:03:11;;;;;;;;;;;21.50;48.00;;;;;;5084601;28;20029;-69
2022/01/15 04:05:37;;;;;;;;;;;21.50;48.00;;;;;;5080967;28;19916;-69
2022/01/15 04:08:02;;;;;;;;;;;21.50;48.10;;;;;;5084332;28;19919;-71
2022/01/15 04:10:28;;;;;;;;;;;21.40;48.00;;;;;;5084038;28;20376;-71
2022/01/15 04:12:53;;;;;;;;;;;21.40;48.00;;;;;;5086168;28;20004;-67
2022/01/15 04:15:21;;;;;;;;;;;21.40;48.00;;;;;;5082295;28;19919;-71
2022/01/15 04:17:48;;;;;;;;;;;21.40;48.10;;;;;;5086600;28;19912;-69
2022/01/15 04:20:16;;;;;;;;;;;21.40;48.10;;;;;;5075882;28;20261;-67
2022/01/15 04:22:42;;;;;;;;;;;21.40;48.10;;;;;;5084738;28;19924;-69
2022/01/15 04:25:08;;;;;;;;;;;21.40;48.20;;;;;;5083712;28;19916;-70
2022/01/15 04:27:33;;;;;;;;;;;21.40;48.10;;;;;;5084760;28;19920;-68
2022/01/15 04:30:03;;;;;;;;;;;21.30;48.10;;;;;;5079433;28;19948;-70
2022/01/15 04:32:29;;;;;;;;;;;21.30;48.10;;;;;;5085535;28;19916;-71
2022/01/15 04:34:54;;;;;;;;;;;21.30;48.20;;;;;;5086384;28;20459;-67
2022/01/15 04:37:22;;;;;;;;;;;21.30;48.20;;;;;;5087882;28;19912;-71
2022/01/15 04:39:48;;;;;;;;;;;21.30;48.20;;;;;;5082111;28;19919;-67
2022/01/15 04:42:15;;;;;;;;;;;21.30;48.20;;;;;;5085381;28;20375;-71
2022/01/15 04:44:41;;;;;;;;;;;21.30;48.20;;;;;;5081007;28;19912;-69
2022/01/15 04:47:07;;;;;;;;;;;21.30;48.30;;;;;;5080132;28;19919;-69
2022/01/15 04:49:33;;;;;;;;;;;21.30;48.30;;;;;;5082576;28;19912;-71
2022/01/15 04:51:59;;;;;;;;;;;21.20;48.30;;;;;;5087301;28;19922;-71
2022/01/15 04:54:24;;;;;;;;;;;21.20;48.30;;;;;;5097459;28;19959;-68
2022/01/15 04:56:50;;;;;;;;;;;21.30;48.40;;;;;;5085285;28;20382;-68
2022/01/15 04:59:15;;;;;;;;;;;21.20;48.30;;;;;;5084862;28;19964;-69
2022/01/15 05:01:41;;;;;;;;;;;21.20;48.30;;;;;;5083583;28;20340;-71
2022/01/15 05:04:06;;;;;;;;;;;21.20;48.30;;;;;;5082397;28;20057;-71
2022/01/15 05:06:32;;;;;;;;;;;21.20;48.30;;;;;;5083034;28;19912;-69
2022/01/15 05:09:05;;;;;;;;;;;21.20;48.40;;;;;;5082710;28;19912;-68
2022/01/15 05:11:44;;;;;;;;;;;21.20;48.90;;;;;;5084141;28;19970;-69
2022/01/15 05:14:11;;;;;;;;;;;21.20;48.40;;;;;;5091850;28;19912;-69
2022/01/15 05:16:36;;;;;;;;;;;21.20;48.50;;;;;;5086092;28;20359;-71
2022/01/15 05:19:02;;;;;;;;;;;21.10;48.60;;;;;;5089776;28;19955;-69
2022/01/15 05:21:28;;;;;;;;;;;21.10;48.50;;;;;;5084328;28;20010;-69
2022/01/15 05:23:53;;;;;;;;;;;21.10;48.50;;;;;;5087128;28;20386;-69
2022/01/15 05:26:19;;;;;;;;;;;21.10;48.50;;;;;;5087125;28;19959;-67
2022/01/15 05:28:44;;;;;;;;;;;21.10;48.50;;;;;;5086663;28;19920;-70
2022/01/15 05:31:10;;;;;;;;;;;21.10;48.50;;;;;;5089062;28;19972;-69
2022/01/15 05:33:35;;;;;;;;;;;21.10;48.60;;;;;;5088537;28;19984;-71
2022/01/15 05:36:01;;;;;;;;;;;21.10;48.60;;;;;;5088265;28;19924;-69
2022/01/15 05:38:26;;;;;;;;;;;21.10;48.60;;;;;;5089163;28;19920;-67
2022/01/15 05:40:52;;;;;;;;;;;21.10;48.60;;;;;;5086287;28;19916;-69
2022/01/15 05:43:17;;;;;;;;;;;21.00;48.60;;;;;;5082683;28;19924;-69
2022/01/15 05:45:43;;;;;;;;;;;21.00;48.70;;;;;;5089871;28;20055;-71
2022/01/15 05:48:08;;;;;;;;;;;21.00;48.60;;;;;;5084471;28;19947;-67
2022/01/15 05:50:34;;;;;;;;;;;21.00;48.70;;;;;;5086241;28;19912;-71
2022/01/15 05:53:00;;;;;;;;;;;21.00;48.70;;;;;;5086136;28;19944;-69
2022/01/15 05:55:25;;;;;;;;;;;21.00;48.70;;;;;;5084389;28;19912;-71
2022/01/15 05:57:51;;;;;;;;;;;21.00;48.70;;;;;;5090099;28;19919;-68
2022/01/15 06:00:17;;;;;;;;;;;21.00;48.80;;;;;;5087975;28;20002;-71
2022/01/15 06:02:42;;;;;;;;;;;21.00;48.80;;;;;;5087464;28;19916;-71
2022/01/15 06:05:08;;;;;;;;;;;21.00;48.80;;;;;;5086086;28;19916;-68
2022/01/15 06:07:33;;;;;;;;;;;21.00;48.80;;;;;;5081547;28;19969;-71
2022/01/15 06:09:59;;;;;;;;;;;20.90;48.80;;;;;;5084390;28;20325;-69
2022/01/15 06:12:30;;;;;;;;;;;20.90;48.80;;;;;;5085247;28;19912;-69
2022/01/15 06:14:56;;;;;;;;;;;20.90;48.80;;;;;;5083576;28;19912;-69
2022/01/15 06:17:21;;;;;;;;;;;20.90;48.80;;;;;;5082192;28;19966;-69
2022/01/15 06:19:47;;;;;;;;;;;20.90;48.80;;;;;;5088344;28;19923;-69
2022/01/15 06:22:12;;;;;;;;;;;20.90;48.90;;;;;;5084741;28;19916;-67
2022/01/15 06:24:38;;;;;;;;;;;20.90;48.80;;;;;;5082939;28;20074;-69
2022/01/15 06:27:03;;;;;;;;;;;20.90;48.80;;;;;;5083554;28;19919;-67
2022/01/15 06:29:29;;;;;;;;;;;20.90;48.90;;;;;;5084961;28;20002;-68
2022/01/15 06:31:54;;;;;;;;;;;20.90;48.90;;;;;;5088034;28;19912;-69
2022/01/15 06:34:20;;;;;;;;;;;20.90;48.90;;;;;;5087636;28;19970;-69
2022/01/15 06:36:46;;;;;;;;;;;20.90;48.90;;;;;;5088577;28;19961;-69
2022/01/15 06:39:12;;;;;;;;;;;20.90;48.90;;;;;;5084162;28;20337;-69
2022/01/15 06:41:37;;;;;;;;;;;20.90;48.90;;;;;;5085199;28;20661;-68
2022/01/15 06:44:03;;;;;;;;;;;20.80;48.90;;;;;;5084798;28;20273;-69
2022/01/15 06:46:28;;;;;;;;;;;20.90;48.90;;;;;;5082587;28;19927;-69
2022/01/15 06:48:54;;;;;;;;;;;20.80;48.90;;;;;;5088855;28;20302;-69
2022/01/15 06:51:19;;;;;;;;;;;20.90;48.90;;;;;;5083629;28;19912;-69
2022/01/15 06:53:45;;;;;;;;;;;20.80;48.90;;;;;;5084089;28;22445;-68
2022/01/15 06:56:10;;;;;;;;;;;20.80;48.90;;;;;;5085358;28;20280;-69
2022/01/15 06:58:36;;;;;;;;;;;20.80;49.00;;;;;;5088503;28;20330;-69
2022/01/15 07:01:01;;;;;;;;;;;20.80;49.00;;;;;;5087067;28;19920;-66
2022/01/15 07:03:27;;;;;;;;;;;20.80;49.00;;;;;;5086446;28;20004;-68
2022/01/15 07:05:52;;;;;;;;;;;20.80;49.00;;;;;;5088181;28;19920;-66
2022/01/15 07:08:18;;;;;;;;;;;20.80;49.10;;;;;;5084673;28;19916;-71
2022/01/15 07:10:43;;;;;;;;;;;20.80;49.10;;;;;;5082269;28;19916;-69
2022/01/15 07:13:09;;;;;;;;;;;20.80;49.20;;;;;;5086151;28;20400;-69
2022/01/15 07:15:35;;;;;;;;;;;20.80;49.10;;;;;;5086763;28;19970;-66
2022/01/15 07:18:00;;;;;;;;;;;20.80;49.10;;;;;;5084075;28;19912;-71
2022/01/15 07:20:26;;;;;;;;;;;20.80;49.20;;;;;;5085239;28;20392;-67
2022/01/15 07:22:52;;;;;;;;;;;20.80;49.20;;;;;;5086676;28;20229;-69
2022/01/15 07:25:17;;;;;;;;;;;20.70;49.20;;;;;;5083693;28;19995;-66
2022/01/15 07:27:43;;;;;;;;;;;20.70;49.20;;;;;;5080169;28;19912;-66
2022/01/15 07:30:11;;;;;;;;;;;20.70;49.20;;;;;;5083663;28;19916;-71
2022/01/15 07:32:37;;;;;;;;;;;20.70;49.20;;;;;;5084138;28;20180;-69
2022/01/15 07:35:03;;;;;;;;;;;20.70;49.20;;;;;;5081535;28;19912;-71
2022/01/15 07:37:29;;;;;;;;;;;20.70;49.30;;;;;;5082335;28;20721;-68
2022/01/15 07:39:55;;;;;;;;;;;20.70;49.30;;;;;;5080674;28;19916;-71
2022/01/15 07:42:20;;;;;;;;;;;20.70;49.30;;;;;;5082895;28;20287;-68
2022/01/15 07:44:46;;;;;;;;;;;20.70;49.40;;;;;;5085352;28;19916;-67
2022/01/15 07:47:12;;;;;;;;;;;20.70;49.40;;;;;;5083767;28;20243;-71
2022/01/15 07:49:38;;;;;;;;;;;20.70;49.40;;;;;;5083739;28;20328;-67
2022/01/15 07:52:03;;;;;;;;;;;20.70;49.40;;;;;;5084869;28;19938;-69
2022/01/15 07:54:29;;;;;;;;;;;20.70;49.40;;;;;;5081173;28;20437;-71
2022/01/15 07:56:55;;;;;;;;;;;20.70;49.40;;;;;;5087783;28;19912;-69
2022/01/15 07:59:21;;;;;;;;;;;20.70;49.40;;;;;;5086309;28;20002;-68
2022/01/15 08:01:46;;;;;;;;;;;20.70;49.50;;;;;;5085541;28;20421;-71
2022/01/15 08:04:12;;;;;;;;;;;20.70;49.40;;;;;;5085872;28;20023;-68
2022/01/15 08:06:39;;;;;;;;;;;20.70;49.50;;;;;;5087194;28;19920;-69
2022/01/15 08:09:04;;;;;;;;;;;20.70;50.00;;;;;;5082555;28;19962;-71
2022/01/15 08:11:30;;;;;;;;;;;20.60;49.40;;;;;;5086424;28;19916;-67
2022/01/15 08:13:55;;;;;;;;;;;20.60;49.50;;;;;;5083537;28;19930;-71
2022/01/15 08:16:21;;;;;;;;;;;20.60;49.50;;;;;;5086678;28;20018;-68
2022/01/15 08:18:46;;;;;;;;;;;20.60;49.50;;;;;;5084673;28;19962;-69
2022/01/15 08:21:12;;;;;;;;;;;20.60;49.50;;;;;;5084191;28;19984;-67
2022/01/15 08:23:38;;;;;;;;;;;20.60;49.50;;;;;;5079051;28;19928;-67
2022/01/15 08:26:03;;;;;;;;;;;20.60;49.50;;;;;;5083840;28;19952;-69
2022/01/15 08:28:29;;;;;;;;;;;20.60;49.60;;;;;;5081851;28;19916;-69
2022/01/15 08:30:54;;;;;;;;;;;20.60;49.60;;;;;;5084003;28;19912;-68
2022/01/15 08:33:20;;;;;;;;;;;20.60;49.60;;;;;;5085009;28;19919;-67
2022/01/15 08:35:46;;;;;;;;;;;20.60;49.70;;;;;;5081178;28;19920;-68
2022/01/15 08:38:11;;;;;;;;;;;20.60;49.60;;;;;;5079078;28;20484;-69
2022/01/15 08:40:36;;;;;;;;;;;20.60;49.60;;;;;;5078737;28;20477;-71
2022/01/15 08:43:03;;;;;;;;;;;20.60;49.60;;;;;;5082546;28;19994;-69
2022/01/15 08:45:29;;;;;;;;;;;20.60;49.70;;;;;;5082750;28;19938;-67
2022/01/15 08:47:54;;;;;;;;;;;20.60;49.70;;;;;;5082359;28;19916;-69
2022/01/15 08:50:20;;;;;;;;;;;20.60;49.70;;;;;;5078829;28;19916;-70
2022/01/15 08:52:46;;;;;;;;;;;20.60;50.20;;;;;;5079134;28;20046;-71
2022/01/15 08:55:12;;;;;;;;;;;20.60;49.70;;;;;;5079999;28;20416;-69
2022/01/15 08:57:38;;;;;;;;;;;20.50;50.20;;;;;;5078619;28;19923;-71
2022/01/15 09:00:05;;;;;;;;;;;20.50;49.70;;;;;;5080384;28;19912;-69
2022/01/15 09:02:31;;;;;;;;;;;20.50;49.70;;;;;;5077247;28;19920;-69
2022/01/15 09:04:57;;;;;;;;;;;20.50;49.70;;;;;;5075258;28;19924;-70
2022/01/15 09:07:22;;;;;;;;;;;20.50;49.70;;;;;;5078910;28;20035;-68
2022/01/15 09:09:48;;;;;;;;;;;20.50;49.70;;;;;;5082106;28;19916;-72
2022/01/15 09:12:15;;;;;;;;;;;20.50;50.00;;;;;;5075462;28;19931;-67
2022/01/15 09:14:41;;;;;;;;;;;20.50;49.80;;;;;;5082552;28;19923;-71
2022/01/15 09:17:06;;;;;;;;;;;20.50;49.90;;;;;;5079837;28;19916;-67
2022/01/15 09:19:32;;;;;;;;;;;20.50;49.80;;;;;;5081984;28;19920;-66
2022/01/15 09:21:58;;;;;;;;;;;20.50;49.80;;;;;;5076495;28;19932;-71
2022/01/15 09:24:23;;;;;;;;;;;20.50;49.80;;;;;;5078489;28;19974;-69
2022/01/15 09:27:02;;;;;;;;;;;20.50;49.90;;;;;;5076981;28;20016;-69
2022/01/15 09:32:11;;;;;;;;;;;20.50;49.90;;;;;;5075263;28;19973;-69
2022/01/15 09:34:37;;;;;;;;;;;20.40;49.80;;;;;;5076281;28;19920;-68
2022/01/15 09:37:03;;;;;;;;;;;20.50;49.90;;;;;;5074603;28;19978;-68
2022/01/15 09:39:29;;;;;;;;;;;20.40;49.80;;;;;;5077956;28;19920;-67
2022/01/15 09:41:55;;;;;;;;;;;20.50;49.90;;;;;;5077129;28;20312;-71
2022/01/15 09:44:24;;;;;;;;;;;20.40;49.90;;;;;;5075600;28;20246;-68
2022/01/15 09:46:50;;;;;;;;;;;20.40;49.80;;;;;;5075825;28;19920;-67
2022/01/15 09:49:17;;;;;;;;;;;20.40;49.90;;;;;;5077121;28;19940;-69
2022/01/15 09:51:43;;;;;;;;;;;20.40;49.90;;;;;;5079196;28;19924;-68
2022/01/15 09:54:09;;;;;;;;;;;20.40;49.90;;;;;;5077634;28;19982;-69
2022/01/15 09:56:34;;;;;;;;;;;20.40;49.90;;;;;;5079880;28;19956;-69
2022/01/15 09:59:02;;;;;;;;;;;20.40;49.90;;;;;;5079798;28;19969;-69
2022/01/15 10:01:28;;;;;;;;;;;20.40;49.90;;;;;;5080691;28;20012;-69
2022/01/15 10:03:55;;;;;;;;;;;20.40;50.00;;;;;;5076465;28;19916;-72
2022/01/15 10:06:20;;;;;;;;;;;20.40;49.90;;;;;;5079184;28;19915;-70
2022/01/15 10:08:59;;;;;;;;;;;20.40;49.90;;;;;;5081054;28;19939;-69
2022/01/15 10:11:41;;;;;;;;;;;20.40;50.00;;;;;;5080117;28;19919;-69
2022/01/15 10:14:30;;;;;;;;;;;20.40;50.00;;;;;;5079554;28;19999;-69
2022/01/15 10:16:57;;;;;;;;;;;20.40;50.00;;;;;;5084257;28;20549;-68
2022/01/15 10:19:24;;;;;;;;;;;20.40;50.00;;;;;;5085625;28;19985;-70
2022/01/15 10:22:22;;;;;;;;;;;20.40;50.00;;;;;;5081469;28;19927;-72
2022/01/15 10:25:21;;;;;;;;;;;20.40;50.00;;;;;;5056101;28;19916;-70
2022/01/15 10:27:54;;;;;;;;;;;20.40;50.00;;;;;;5085217;28;19923;-70
2022/01/15 10:30:19;;;;;;;;;;;20.40;50.10;;;;;;5083004;28;19912;-69
2022/01/15 10:33:11;;;;;;;;;;;20.40;50.10;;;;;;5084593;28;19991;-69
2022/01/15 10:35:37;;;;;;;;;;;20.40;50.10;;;;;;5083477;28;19912;-69
2022/01/15 10:38:07;;;;;;;;;;;20.40;50.10;;;;;;5082629;28;19952;-69
2022/01/15 10:40:42;;;;;;;;;;;20.30;50.10;;;;;;5081185;28;19927;-69
2022/01/15 10:43:08;;;;;;;;;;;20.30;50.10;;;;;;5079330;28;19936;-69
2022/01/15 10:45:35;;;;;;;;;;;20.30;50.10;;;;;;5082033;28;19966;-69
2022/01/15 10:48:02;;;;;;;;;;;20.30;50.10;;;;;;5095733;28;20333;-69
2022/01/15 10:50:29;;;;;;;;;;;20.30;50.10;;;;;;5081254;28;21751;-70
2022/01/15 10:52:56;;;;;;;;;;;20.40;50.20;;;;;;5081698;28;19923;-70
2022/01/15 10:55:29;;;;;;;;;;;20.30;50.10;;;;;;5082908;28;20335;-69
2022/01/15 10:57:58;;;;;;;;;;;20.30;50.20;;;;;;5084998;28;19976;-69
2022/01/15 11:00:29;;;;;;;;;;;20.30;50.20;;;;;;5084375;28;19923;-72
2022/01/15 11:02:58;;;;;;;;;;;20.40;50.30;;;;;;5078827;28;19920;-68
2022/01/15 11:05:25;;;;;;;;;;;20.30;50.20;;;;;;5084992;28;20353;-70
2022/01/15 11:07:52;;;;;;;;;;;20.30;50.20;;;;;;5081857;28;19962;-69
2022/01/15 11:10:17;;;;;;;;;;;20.30;50.20;;;;;;5077876;28;20364;-70
2022/01/15 11:12:43;;;;;;;;;;;20.30;50.20;;;;;;5081849;28;20021;-71
2022/01/15 11:15:09;;;;;;;;;;;20.30;50.50;;;;;;5084606;28;19912;-68
2022/01/15 11:17:34;;;;;;;;;;;20.30;50.30;;;;;;5085998;28;19916;-71
2022/01/15 11:20:02;;;;;;;;;;;20.30;50.30;;;;;;5083473;28;19916;-69
2022/01/15 11:22:28;;;;;;;;;;;20.30;50.30;;;;;;5085540;28;19924;-72
2022/01/15 11:24:53;;;;;;;;;;;20.30;50.30;;;;;;5073092;28;19920;-70
2022/01/15 11:27:19;;;;;;;;;;;20.30;50.30;;;;;;5080439;28;19966;-68
2022/01/15 11:29:46;;;;;;;;;;;20.30;50.30;;;;;;5081066;28;20368;-71
2022/01/15 11:32:14;;;;;;;;;;;20.30;50.30;;;;;;5094989;28;20554;-68
2022/01/15 11:34:41;;;;;;;;;;;20.30;50.30;;;;;;5079250;28;20677;-70
2022/01/15 11:37:17;;;;;;;;;;;20.30;50.40;;;;;;5083301;28;20398;-69
2022/01/15 11:39:42;;;;;;;;;;;20.30;50.30;;;;;;5078031;28;19927;-68
2022/01/15 11:42:23;;;;;;;;;;;20.30;50.30;;;;;;5082557;28;20195;-71
2022/01/15 11:44:48;;;;;;;;;;;20.30;50.30;;;;;;5079968;28;20015;-69
2022/01/15 11:47:15;;;;;;;;;;;20.30;50.30;;;;;;5080295;28;20003;-69
2022/01/15 11:49:42;;;;;;;;;;;20.30;50.40;;;;;;5081874;28;19973;-72
2022/01/15 11:52:14;;;;;;;;;;;20.30;50.30;;;;;;5076406;28;20023;-69
2022/01/15 11:54:51;;;;;;;;;;;20.30;50.30;;;;;;5083102;28;20581;-68
2022/01/15 11:57:20;;;;;;;;;;;20.30;50.40;;;;;;5077326;28;19942;-68
2022/01/15 11:59:47;;;;;;;;;;;20.30;50.40;;;;;;5084196;28;20003;-68
2022/01/15 12:02:26;;;;;;;;;;;20.30;50.40;;;;;;5080216;28;20057;-68
2022/01/15 12:04:52;;;;;;;;;;;20.30;50.40;;;;;;5080359;28;20456;-69
2022/01/15 12:07:21;;;;;;;;;;;20.30;50.40;;;;;;5078595;28;19928;-71
2022/01/15 12:09:48;;;;;;;;;;;20.30;50.40;;;;;;5081051;28;20030;-71
2022/01/15 12:12:20;;;;;;;;;;;20.30;50.40;;;;;;5075313;28;19916;-69
2022/01/15 12:14:49;;;;;;;;;;;20.30;50.40;;;;;;5079917;28;19924;-71
2022/01/15 12:17:31;;;;;;;;;;;20.30;50.50;;;;;;5080569;28;19922;-69
2022/01/15 12:20:02;;;;;;;;;;;20.30;50.50;;;;;;5079511;28;20683;-70
2022/01/15 12:22:34;;;;;;;;;;;20.30;50.50;;;;;;5075560;28;19997;-70
2022/01/15 12:25:00;;;;;;;;;;;20.30;50.50;;;;;;5073980;28;19923;-68
2022/01/15 12:27:26;;;;;;;;;;;20.20;50.50;;;;;;5080100;28;19996;-71
2022/01/15 12:29:59;;;;;;;;;;;20.30;50.50;;;;;;5078489;28;19912;-68
2022/01/15 12:32:26;;;;;;;;;;;20.30;50.50;;;;;;5076375;28;20398;-69
2022/01/15 12:34:52;;;;;;;;;;;20.30;50.60;;;;;;5080034;28;19916;-68
2022/01/15 12:37:17;;;;;;;;;;;20.30;50.80;;;;;;5081881;28;19916;-68
2022/01/15 12:39:43;;;;;;;;;;;20.30;50.80;;;;;;5073948;28;20129;-68
2022/01/15 12:42:10;;;;;;;;;;;20.30;51.10;;;;;;5077091;28;19916;-69
2022/01/15 12:44:43;;;;;;;;;;;20.40;51.00;;;;;;5077675;28;20024;-69
2022/01/15 12:47:08;;;;;;;;;;;20.50;51.00;;;;;;5076489;28;20288;-70
2022/01/15 12:49:35;;;;;;;;;;;20.50;51.00;;;;;;5079504;28;19912;-69
2022/01/15 12:52:11;;;;;;;;;;;20.50;51.10;;;;;;5094896;28;20372;-71
2022/01/15 12:54:36;;;;;;;;;;;20.60;51.10;;;;;;5076789;28;20534;-69
2022/01/15 12:57:02;;;;;;;;;;;20.60;51.20;;;;;;5075468;28;19950;-69
2022/01/15 12:59:27;;;;;;;;;;;20.70;51.30;;;;;;5077659;28;19924;-69
2022/01/15 13:01:53;;;;;;;;;;;20.70;51.30;;;;;;5075538;28;19967;-69
2022/01/15 13:04:19;;;;;;;;;;;20.70;51.20;;;;;;5077924;28;20006;-70
2022/01/15 13:06:49;;;;;;;;;;;20.70;51.20;;;;;;5078396;28;19923;-69
2022/01/15 13:09:16;;;;;;;;;;;20.60;51.20;;;;;;5074916;28;19985;-71
2022/01/15 13:11:48;;;;;;;;;;;20.60;51.30;;;;;;5076739;28;20009;-71
2022/01/15 13:14:14;;;;;;;;;;;20.60;51.40;;;;;;5078663;28;19916;-69
2022/01/15 13:16:40;;;;;;;;;;;20.60;51.50;;;;;;5075318;28;19922;-68
2022/01/15 13:19:06;;;;;;;;;;;20.60;51.60;;;;;;5080899;28;20299;-70
2022/01/15 13:21:37;;;;;;;;;;;20.60;51.70;;;;;;5078700;28;20688;-71
2022/01/15 13:24:08;;;;;;;;;;;20.60;51.50;;;;;;5079099;28;20472;-69
2022/01/15 13:26:35;;;;;;;;;;;20.60;51.70;;;;;;5076560;28;19920;-70
2022/01/15 13:29:02;;;;;;;;;;;20.70;51.80;;;;;;5080218;28;19924;-70
2022/01/15 13:31:33;;;;;;;;;;;20.80;51.90;;;;;;5081925;28;19984;-70
2022/01/15 13:34:08;;;;;;;;;;;20.80;51.90;;;;;;5082146;28;19939;-72
2022/01/15 13:36:34;;;;;;;;;;;20.80;51.90;;;;;;5081125;28;20328;-68
2022/01/15 13:38:59;;;;;;;;;;;20.80;52.00;;;;;;5081350;28;20072;-69
2022/01/15 13:41:26;;;;;;;;;;;20.80;52.00;;;;;;5083615;28;19961;-68
2022/01/15 13:43:54;;;;;;;;;;;20.80;52.10;;;;;;5082351;28;19924;-70
2022/01/15 13:46:21;;;;;;;;;;;20.80;52.10;;;;;;5080675;28;19951;-70
2022/01/15 13:48:53;;;;;;;;;;;20.80;52.10;;;;;;5075822;28;19922;-69
2022/01/15 13:54:08;;;;;;;;;;;20.80;52.80;;;;;;5078132;28;20299;-69
2022/01/15 13:56:35;;;;;;;;;;;20.80;52.90;;;;;;5074641;28;20447;-68
2022/01/15 13:59:03;;;;;;;;;;;20.90;52.80;;;;;;5073504;28;19935;-67
2022/01/15 14:01:30;;;;;;;;;;;20.90;52.70;;;;;;5076732;28;20385;-69
2022/01/15 14:03:56;;;;;;;;;;;20.90;52.50;;;;;;5073810;28;20672;-69
2022/01/15 14:06:21;;;;;;;;;;;21.00;52.40;;;;;;5075274;28;19931;-69
2022/01/15 14:08:48;;;;;;;;;;;21.00;52.30;;;;;;5074808;28;20953;-71
2022/01/15 14:11:15;;;;;;;;;;;21.00;52.50;;;;;;5076878;28;20046;-71
2022/01/15 14:13:41;;;;;;;;;;;21.10;52.20;;;;;;5072782;28;21874;-69
2022/01/15 14:16:19;;;;;;;;;;;21.30;51.80;;;;;;5078791;28;20060;-71
2022/01/15 14:18:47;;;;;;;;;;;21.40;51.50;;;;;;5076270;28;19920;-69
2022/01/15 14:21:39;;;;;;;;;;;21.50;51.10;;;;;;5073861;28;20011;-69
2022/01/15 14:24:15;;;;;;;;;;;21.70;50.90;;;;;;5078693;28;20398;-69
2022/01/15 14:26:44;;;;;;;;;;;21.80;50.60;;;;;;5074739;28;19920;-69
2022/01/15 14:29:10;;;;;;;;;;;21.90;50.40;;;;;;5069989;28;19923;-70
2022/01/15 14:31:36;;;;;;;;;;;22.00;50.30;;;;;;5075707;28;19920;-70
2022/01/15 14:34:04;;;;;;;;;;;22.10;50.00;;;;;;5074753;28;20691;-71
2022/01/15 14:36:29;;;;;;;;;;;22.10;50.10;;;;;;5073386;28;20410;-69
2022/01/15 14:38:55;;;;;;;;;;;22.20;49.80;;;;;;5073969;28;19924;-70
2022/01/15 14:41:21;;;;;;;;;;;22.30;49.40;;;;;;5073901;28;20483;-72
2022/01/15 14:43:46;;;;;;;;;;;22.50;49.20;;;;;;5074498;28;20737;-69
2022/01/15 14:46:11;;;;;;;;;;;22.60;49.00;;;;;;5072270;28;19916;-71
2022/01/15 14:48:37;;;;;;;;;;;22.70;48.70;;;;;;5076189;28;19969;-70
2022/01/15 14:51:03;;;;;;;;;;;22.80;48.50;;;;;;5080408;28;20295;-69